Time;durP1;ratioP1;P1;durP2;ratioP2;P2;SDS_P1;SDS_P2;PMS_P1;PMS_P2;Temp;Humidity;BMP_temperature;BMP_pressure;BME280_temperature;BME280_humidity;BME280_pressure;Samples;Min_cycle;Max_cycle;Signal;HPM_P1;HPM_P2
2021/07/28 00:00:14;;;;;;;8.23;2.60;;;18.40;85.40;;;;;;6210371;23;20628;-76
2021/07/28 00:02:43;;;;;;;6.03;2.50;;;18.30;85.90;;;;;;6215358;23;20086;-75
2021/07/28 00:05:13;;;;;;;4.95;2.50;;;18.30;86.10;;;;;;6215668;23;20028;-75
2021/07/28 00:07:40;;;;;;;4.22;2.33;;;18.30;85.40;;;;;;6215858;23;20244;-75
2021/07/28 00:10:08;;;;;;;4.82;2.20;;;18.30;85.90;;;;;;6216292;23;20075;-75
2021/07/28 00:12:35;;;;;;;5.75;2.40;;;18.30;85.40;;;;;;6216333;23;20074;-75
2021/07/28 00:15:03;;;;;;;6.75;3.25;;;18.30;85.20;;;;;;6218674;23;20068;-75
2021/07/28 00:17:31;;;;;;;4.85;2.38;;;18.30;85.60;;;;;;6216182;23;20027;-75
2021/07/28 00:20:01;;;;;;;5.85;2.58;;;18.20;85.50;;;;;;6214690;23;20087;-75
2021/07/28 00:25:20;;;;;;;6.18;2.67;;;18.20;85.70;;;;;;6215724;23;20044;-76
2021/07/28 00:27:49;;;;;;;6.72;2.35;;;18.10;86.30;;;;;;6214800;23;20032;-75
2021/07/28 00:30:18;;;;;;;6.45;2.63;;;18.20;85.60;;;;;;6217878;23;20025;-76
2021/07/28 00:32:45;;;;;;;5.40;2.30;;;18.20;85.40;;;;;;6216242;23;20017;-75
2021/07/28 00:35:12;;;;;;;4.90;2.40;;;18.20;85.20;;;;;;6216209;23;20205;-75
2021/07/28 00:37:44;;;;;;;5.38;2.42;;;18.20;85.20;;;;;;6217820;23;20074;-75
2021/07/28 00:40:14;;;;;;;5.13;2.30;;;18.20;85.00;;;;;;6217538;23;20347;-76
2021/07/28 00:42:41;;;;;;;5.78;2.88;;;18.20;85.30;;;;;;6217903;23;20024;-76
2021/07/28 00:45:11;;;;;;;6.47;2.92;;;18.20;85.40;;;;;;6219690;23;20017;-75
2021/07/28 00:47:38;;;;;;;4.43;2.45;;;18.10;86.00;;;;;;6217897;23;20083;-75
2021/07/28 00:50:07;;;;;;;5.22;2.42;;;18.10;86.10;;;;;;6216563;23;20052;-76
2021/07/28 00:52:37;;;;;;;5.97;3.05;;;18.10;86.60;;;;;;6215288;23;20028;-75
2021/07/28 00:55:08;;;;;;;5.90;2.70;;;18.10;86.90;;;;;;6218755;23;20030;-76
2021/07/28 00:57:42;;;;;;;5.82;3.00;;;18.10;87.00;;;;;;6213981;23;20026;-76
2021/07/28 01:00:10;;;;;;;6.78;2.55;;;18.10;87.30;;;;;;6211753;23;20115;-75
2021/07/28 01:02:38;;;;;;;5.03;2.30;;;18.10;86.70;;;;;;6220288;23;20193;-75
2021/07/28 01:05:06;;;;;;;5.38;2.38;;;18.10;86.50;;;;;;6221412;23;20205;-75
2021/07/28 01:07:34;;;;;;;7.00;2.33;;;18.00;86.40;;;;;;6223048;23;20020;-75
2021/07/28 01:10:01;;;;;;;4.93;2.53;;;17.90;86.60;;;;;;6221007;23;20111;-75
2021/07/28 01:12:34;;;;;;;4.57;2.30;;;17.90;86.60;;;;;;6220889;23;20067;-75
2021/07/28 01:15:02;;;;;;;;;;;18.00;86.60;;;;;;6222229;23;20207;-75
2021/07/28 01:17:33;;;;;;;5.72;2.47;;;18.00;86.80;;;;;;6222702;23;19941;-76
2021/07/28 01:20:06;;;;;;;6.32;2.75;;;18.00;86.60;;;;;;6221668;23;20091;-76
2021/07/28 01:22:34;;;;;;;6.60;2.50;;;18.10;86.40;;;;;;6223702;23;20017;-76
2021/07/28 01:25:03;;;;;;;5.28;2.45;;;18.00;86.40;;;;;;6223958;23;20016;-76
2021/07/28 01:27:33;;;;;;;5.55;2.55;;;18.00;86.40;;;;;;6220106;23;20048;-76
2021/07/28 01:30:00;;;;;;;6.70;2.45;;;18.10;86.40;;;;;;6222264;23;20132;-76
2021/07/28 01:32:30;;;;;;;5.10;2.10;;;18.10;85.80;;;;;;6222255;23;20279;-76
2021/07/28 01:34:58;;;;;;;5.25;2.63;;;18.10;85.80;;;;;;6221426;23;20290;-76
2021/07/28 01:37:28;;;;;;;4.97;2.58;;;18.10;85.80;;;;;;6219923;23;20078;-76
2021/07/28 01:39:55;;;;;;;8.65;3.03;;;18.10;85.70;;;;;;6221058;23;20284;-75
2021/07/28 01:42:23;;;;;;;6.63;2.80;;;18.00;86.10;;;;;;6220474;23;20075;-75
2021/07/28 01:44:50;;;;;;;5.65;2.30;;;18.00;86.20;;;;;;6220213;23;20229;-75
2021/07/28 01:47:18;;;;;;;5.15;2.63;;;17.90;86.60;;;;;;6220799;23;20024;-75
2021/07/28 01:49:45;;;;;;;5.60;2.22;;;18.00;86.50;;;;;;6219790;23;20024;-76
2021/07/28 01:52:12;;;;;;;4.65;2.20;;;17.90;85.90;;;;;;6216803;23;20091;-75
2021/07/28 01:54:40;;;;;;;5.47;2.38;;;17.90;86.10;;;;;;6220379;23;20073;-75
2021/07/28 01:57:07;;;;;;;4.03;1.80;;;17.90;86.10;;;;;;6219643;23;20080;-75
2021/07/28 01:59:40;;;;;;;5.78;2.28;;;17.80;86.00;;;;;;6216724;23;20335;-74
2021/07/28 02:02:07;;;;;;;4.35;2.22;;;17.70;86.50;;;;;;6210296;23;20383;-76
2021/07/28 02:04:34;;;;;;;7.35;2.50;;;17.70;86.50;;;;;;6214797;23;20227;-76
2021/07/28 02:07:02;;;;;;;6.15;3.45;;;17.70;86.60;;;;;;6215816;23;20021;-76
2021/07/28 02:09:29;;;;;;;7.60;2.67;;;17.60;86.70;;;;;;6215972;23;20028;-76
2021/07/28 02:11:56;;;;;;;6.57;2.88;;;17.60;87.50;;;;;;6218428;23;20082;-76
2021/07/28 02:14:23;;;;;;;5.90;2.50;;;17.50;87.90;;;;;;6219651;23;20266;-76
2021/07/28 02:16:52;;;;;;;4.70;2.70;;;17.40;87.70;;;;;;6217601;23;20133;-76
2021/07/28 02:19:19;;;;;;;5.43;2.50;;;17.30;88.20;;;;;;6221563;23;20224;-76
2021/07/28 02:21:46;;;;;;;8.00;2.50;;;17.30;88.60;;;;;;6220230;23;20047;-76
2021/07/28 02:24:13;;;;;;;5.60;2.40;;;17.30;88.60;;;;;;6221464;23;20030;-76
2021/07/28 02:26:40;;;;;;;5.68;2.90;;;17.30;88.70;;;;;;6218842;23;20012;-74
2021/07/28 02:29:08;;;;;;;9.40;2.78;;;17.30;88.50;;;;;;6221818;23;20055;-74
2021/07/28 02:31:37;;;;;;;;;;;17.40;88.60;;;;;;6222097;23;20028;-74
2021/07/28 02:34:06;;;;;;;5.72;2.67;;;17.40;88.50;;;;;;6221088;23;19916;-74
2021/07/28 02:36:33;;;;;;;6.90;2.70;;;17.40;88.40;;;;;;6220725;23;20245;-75
2021/07/28 02:39:01;;;;;;;6.22;2.53;;;17.40;88.10;;;;;;6221993;23;20067;-75
2021/07/28 02:41:28;;;;;;;8.38;2.72;;;17.60;88.00;;;;;;6221083;23;20024;-74
2021/07/28 02:43:55;;;;;;;5.68;2.78;;;17.60;87.70;;;;;;6219907;23;20028;-74
2021/07/28 02:46:22;;;;;;;6.82;3.08;;;17.60;87.70;;;;;;6220918;23;20024;-74
2021/07/28 02:48:50;;;;;;;6.75;2.78;;;17.60;87.50;;;;;;6221803;23;20024;-74
2021/07/28 02:51:18;;;;;;;5.95;2.53;;;17.60;87.70;;;;;;6218154;23;20031;-76
2021/07/28 02:53:45;;;;;;;5.13;2.47;;;17.40;88.00;;;;;;6218388;23;20112;-76
2021/07/28 02:56:12;;;;;;;6.60;3.17;;;17.30;88.20;;;;;;6219672;23;20028;-76
2021/07/28 02:58:40;;;;;;;7.13;2.92;;;17.20;88.60;;;;;;6218393;23;20025;-76
2021/07/28 03:01:07;;;;;;;7.93;2.70;;;17.10;88.60;;;;;;6212053;23;20024;-76
2021/07/28 03:03:34;;;;;;;6.15;2.53;;;17.00;88.80;;;;;;6217148;23;20229;-76
2021/07/28 03:06:02;;;;;;;6.15;2.67;;;16.90;88.90;;;;;;6217467;23;20119;-76
2021/07/28 03:08:32;;;;;;;5.53;2.33;;;16.90;88.90;;;;;;6215291;23;20024;-76
2021/07/28 03:10:59;;;;;;;5.65;2.30;;;16.80;88.90;;;;;;6214564;23;20028;-76
2021/07/28 03:13:27;;;;;;;4.93;2.40;;;16.80;89.00;;;;;;6214541;23;20028;-76
2021/07/28 03:15:54;;;;;;;6.30;2.78;;;16.80;89.10;;;;;;6219185;23;20076;-76
2021/07/28 03:18:21;;;;;;;5.15;2.83;;;16.70;89.20;;;;;;6214376;23;20032;-76
2021/07/28 03:20:48;;;;;;;7.82;2.97;;;16.80;89.00;;;;;;6215576;23;20075;-76
2021/07/28 03:23:15;;;;;;;5.72;2.65;;;16.80;88.70;;;;;;6213994;23;20024;-76
2021/07/28 03:25:44;;;;;;;5.18;2.63;;;16.90;88.70;;;;;;6216134;23;20355;-76
2021/07/28 03:28:11;;;;;;;5.55;2.50;;;17.00;88.50;;;;;;6213200;23;20028;-75
2021/07/28 03:30:38;;;;;;;7.03;2.97;;;17.10;88.20;;;;;;6215604;23;20025;-76
2021/07/28 03:33:05;;;;;;;5.22;2.53;;;17.10;87.70;;;;;;6217090;23;20308;-76
2021/07/28 03:35:33;;;;;;;7.82;3.60;;;17.30;87.30;;;;;;6213500;23;20026;-76
2021/07/28 03:38:00;;;;;;;7.03;2.90;;;17.40;87.30;;;;;;6215334;23;20080;-76
2021/07/28 03:40:34;;;;;;;7.35;2.78;;;17.40;87.00;;;;;;6214886;23;20028;-76
2021/07/28 03:43:02;;;;;;;5.72;2.50;;;17.40;86.70;;;;;;6215796;23;20016;-76
2021/07/28 03:45:29;;;;;;;5.75;2.17;;;17.50;86.90;;;;;;6215085;23;20079;-76
2021/07/28 03:47:57;;;;;;;4.97;1.90;;;17.60;86.30;;;;;;6218681;23;20039;-76
2021/07/28 03:50:24;;;;;;;6.55;2.65;;;17.50;86.00;;;;;;6217387;23;20304;-76
2021/07/28 03:52:51;;;;;;;8.82;3.13;;;17.40;86.00;;;;;;6214345;23;20248;-76
2021/07/28 03:55:19;;;;;;;6.20;2.45;;;17.40;86.50;;;;;;6216881;23;20028;-77
2021/07/28 03:57:46;;;;;;;5.90;2.30;;;17.50;86.30;;;;;;6217614;23;20383;-76
2021/07/28 04:00:16;;;;;;;4.15;2.30;;;17.50;85.90;;;;;;6214951;23;20024;-76
2021/07/28 04:02:45;;;;;;;6.30;2.90;;;17.50;86.00;;;;;;6213693;23;20020;-76
2021/07/28 04:05:13;;;;;;;5.55;2.65;;;17.40;86.00;;;;;;6216665;23;20043;-77
2021/07/28 04:07:45;;;;;;;5.85;2.40;;;17.60;86.10;;;;;;6219898;23;20021;-76
2021/07/28 04:10:13;;;;;;;5.05;2.72;;;17.60;85.90;;;;;;6220701;23;20301;-76
2021/07/28 04:12:40;;;;;;;5.38;2.50;;;17.70;85.70;;;;;;6221349;23;20016;-76
2021/07/28 04:15:08;;;;;;;8.25;2.75;;;17.70;85.50;;;;;;6219572;23;20008;-76
2021/07/28 04:17:37;;;;;;;6.30;2.88;;;17.70;85.40;;;;;;6217566;23;20021;-77
2021/07/28 04:20:04;;;;;;;6.35;2.70;;;17.70;85.80;;;;;;6218716;23;20224;-76
2021/07/28 04:22:35;;;;;;;6.75;2.63;;;17.70;85.70;;;;;;6220510;23;20028;-76
2021/07/28 04:25:04;;;;;;;6.32;2.53;;;17.70;85.70;;;;;;6220881;23;20283;-76
2021/07/28 04:27:31;;;;;;;5.15;2.80;;;17.80;85.60;;;;;;6216474;23;20027;-76
2021/07/28 04:29:58;;;;;;;5.68;2.75;;;17.90;85.70;;;;;;6219823;23;20308;-76
2021/07/28 04:32:26;;;;;;;7.88;2.78;;;17.90;85.30;;;;;;6218689;23;20016;-76
2021/07/28 04:34:55;;;;;;;5.03;2.75;;;17.90;85.30;;;;;;6218628;23;20271;-76
2021/07/28 04:37:22;;;;;;;4.82;2.45;;;17.90;85.40;;;;;;6224377;23;20024;-76
2021/07/28 04:39:49;;;;;;;5.80;2.55;;;18.00;85.20;;;;;;6222555;23;20024;-76
2021/07/28 04:42:17;;;;;;;8.20;2.70;;;18.00;84.90;;;;;;6223432;23;20040;-76
2021/07/28 04:44:44;;;;;;;6.50;3.20;;;18.10;85.30;;;;;;6223877;23;20032;-76
2021/07/28 04:47:11;;;;;;;5.43;3.03;;;18.10;85.20;;;;;;6222215;23;20031;-76
2021/07/28 04:49:40;;;;;;;5.20;2.88;;;18.20;84.70;;;;;;6220979;23;20028;-77
2021/07/28 04:52:11;;;;;;;6.32;3.40;;;18.30;84.30;;;;;;6223732;23;20024;-77
2021/07/28 04:54:38;;;;;;;6.32;3.00;;;18.20;84.00;;;;;;6223793;23;20016;-77
2021/07/28 04:57:06;;;;;;;6.45;3.28;;;18.20;83.70;;;;;;6223359;23;20136;-76
2021/07/28 04:59:34;;;;;;;6.10;3.00;;;18.20;83.90;;;;;;6222501;23;20028;-76
2021/07/28 05:02:01;;;;;;;6.53;3.25;;;18.20;83.80;;;;;;6217826;23;20024;-76
2021/07/28 05:04:32;;;;;;;9.40;3.63;;;18.10;83.50;;;;;;6218172;23;20031;-76
2021/07/28 05:07:00;;;;;;;6.55;2.72;;;18.20;83.30;;;;;;6218397;23;20028;-76
2021/07/28 05:09:28;;;;;;;5.90;3.40;;;18.30;83.50;;;;;;6217964;23;20032;-77
2021/07/28 05:11:56;;;;;;;8.65;3.38;;;18.40;83.10;;;;;;6219447;23;20471;-77
2021/07/28 05:14:23;;;;;;;7.38;3.53;;;18.50;82.70;;;;;;6219480;23;20079;-76
2021/07/28 05:16:50;;;;;;;6.55;3.40;;;18.50;82.80;;;;;;6218665;23;20028;-76
2021/07/28 05:19:17;;;;;;;8.90;3.80;;;18.40;82.80;;;;;;6218185;23;20035;-76
2021/07/28 05:21:44;;;;;;;7.30;3.70;;;18.50;82.90;;;;;;6215943;23;20211;-76
2021/07/28 05:24:12;;;;;;;8.88;3.33;;;18.50;82.40;;;;;;6223037;23;20017;-77
2021/07/28 05:26:40;;;;;;;6.10;3.60;;;18.40;82.80;;;;;;6218909;23;20036;-76
2021/07/28 05:29:09;;;;;;;10.02;3.70;;;18.40;83.20;;;;;;6216899;23;20064;-77
2021/07/28 05:31:37;;;;;;;8.82;3.55;;;18.40;83.10;;;;;;6217076;23;20064;-77
2021/07/28 05:34:04;;;;;;;8.32;3.83;;;18.40;83.00;;;;;;6218987;23;20031;-76
2021/07/28 05:36:31;;;;;;;7.50;3.85;;;18.40;82.80;;;;;;6219390;23;20444;-77
2021/07/28 05:38:58;;;;;;;7.70;3.88;;;18.50;82.80;;;;;;6220996;23;20035;-76
2021/07/28 05:41:26;;;;;;;8.07;3.47;;;18.70;82.40;;;;;;6221635;23;20024;-77
2021/07/28 05:43:55;;;;;;;7.47;4.10;;;18.70;81.90;;;;;;6225166;23;20176;-77
2021/07/28 05:46:23;;;;;;;7.43;4.35;;;18.60;82.40;;;;;;6223558;23;20094;-77
2021/07/28 05:48:50;;;;;;;7.20;3.45;;;18.70;82.20;;;;;;6217564;23;20020;-76
2021/07/28 05:51:17;;;;;;;8.02;3.50;;;18.70;82.10;;;;;;6220828;23;20021;-75
2021/07/28 05:53:45;;;;;;;7.47;3.53;;;18.80;81.70;;;;;;6217842;23;20248;-75
2021/07/28 05:56:12;;;;;;;6.03;3.47;;;18.90;81.30;;;;;;6219894;23;20033;-76
2021/07/28 05:58:39;;;;;;;6.72;3.33;;;18.90;81.20;;;;;;6219311;23;20023;-76
2021/07/28 06:01:09;;;;;;;7.63;4.22;;;18.90;81.20;;;;;;6214698;23;20025;-76
2021/07/28 06:03:36;;;;;;;8.10;3.70;;;19.20;81.10;;;;;;6220854;23;20024;-76
2021/07/28 06:06:03;;;;;;;8.23;3.63;;;19.60;80.10;;;;;;6218207;23;20055;-76
2021/07/28 06:08:30;;;;;;;9.45;3.70;;;19.50;80.20;;;;;;6218073;23;20104;-76
2021/07/28 06:10:58;;;;;;;7.53;4.30;;;19.20;80.30;;;;;;6218930;23;20023;-76
2021/07/28 06:13:25;;;;;;;6.35;3.47;;;19.20;80.60;;;;;;6217505;23;20025;-76
2021/07/28 06:15:52;;;;;;;10.23;4.50;;;19.20;80.00;;;;;;6222131;23;20025;-76
2021/07/28 06:18:21;;;;;;;8.93;4.00;;;19.20;80.30;;;;;;6221996;23;20316;-76
2021/07/28 06:20:48;;;;;;;11.02;4.05;;;19.00;80.10;;;;;;6222875;23;20068;-75
2021/07/28 06:23:15;;;;;;;9.93;4.40;;;19.00;80.20;;;;;;6220733;23;20054;-75
2021/07/28 06:25:44;;;;;;;7.32;4.20;;;19.00;80.40;;;;;;6221285;23;20016;-75
2021/07/28 06:28:11;;;;;;;9.43;4.25;;;19.10;80.10;;;;;;6220604;23;20032;-75
2021/07/28 06:30:39;;;;;;;10.13;4.38;;;19.20;79.90;;;;;;6216694;23;20303;-75
2021/07/28 06:33:07;;;;;;;8.48;4.90;;;19.40;79.40;;;;;;6217763;23;20058;-75
2021/07/28 06:35:36;;;;;;;10.93;4.45;;;19.50;78.30;;;;;;6217525;23;20026;-75
2021/07/28 06:38:04;;;;;;;8.05;4.93;;;19.50;77.60;;;;;;6219892;23;20016;-75
2021/07/28 06:40:31;;;;;;;8.55;3.95;;;19.60;78.30;;;;;;6217339;23;20023;-75
2021/07/28 06:42:58;;;;;;;10.25;4.88;;;19.70;77.30;;;;;;6215724;23;20048;-75
2021/07/28 06:45:25;;;;;;;7.60;4.78;;;19.40;77.30;;;;;;6217146;23;20016;-74
2021/07/28 06:47:53;;;;;;;8.25;4.30;;;19.40;77.50;;;;;;6221902;23;20020;-75
2021/07/28 06:50:20;;;;;;;8.70;4.45;;;19.50;77.50;;;;;;6218118;23;20091;-75
2021/07/28 06:52:49;;;;;;;8.02;4.22;;;19.40;77.70;;;;;;6217839;23;20483;-75
2021/07/28 06:55:17;;;;;;;8.10;4.50;;;19.60;77.30;;;;;;6215775;23;20313;-74
2021/07/28 06:57:45;;;;;;;8.18;5.28;;;19.50;77.50;;;;;;6217240;23;20024;-75
2021/07/28 07:00:12;;;;;;;9.18;4.60;;;19.40;77.40;;;;;;6209549;23;20123;-75
2021/07/28 07:02:40;;;;;;;7.85;4.35;;;19.40;77.40;;;;;;6217530;23;20320;-75
2021/07/28 07:05:08;;;;;;;8.85;4.13;;;19.60;77.00;;;;;;6211640;23;20016;-75
2021/07/28 07:07:36;;;;;;;12.13;4.55;;;19.60;76.20;;;;;;6215551;23;20024;-75
2021/07/28 07:10:08;;;;;;;8.98;4.43;;;19.70;76.50;;;;;;6215530;23;20305;-75
2021/07/28 07:12:37;;;;;;;10.52;4.75;;;19.80;76.40;;;;;;6214045;23;20029;-75
2021/07/28 07:15:07;;;;;;;7.03;4.07;;;19.80;76.60;;;;;;6222657;23;20031;-76
2021/07/28 07:17:37;;;;;;;10.82;4.35;;;19.80;76.00;;;;;;6223316;23;20036;-75
2021/07/28 07:20:05;;;;;;;7.78;4.30;;;19.80;76.10;;;;;;6220582;23;20084;-76
2021/07/28 07:22:33;;;;;;;14.18;6.03;;;19.70;76.30;;;;;;6220006;23;20017;-75
2021/07/28 07:25:00;;;;;;;11.32;4.95;;;19.80;76.50;;;;;;6216451;23;20029;-75
2021/07/28 07:27:37;;;;;;;8.50;3.75;;;20.00;75.70;;;;;;6218254;23;20075;-76
2021/07/28 07:30:07;;;;;;;9.18;3.97;;;20.10;76.00;;;;;;6217785;23;20029;-75
2021/07/28 07:32:38;;;;;;;7.35;3.63;;;20.00;75.50;;;;;;6221381;23;20016;-75
2021/07/28 07:35:07;;;;;;;8.18;4.10;;;19.90;76.30;;;;;;6218451;23;20040;-75
2021/07/28 07:37:34;;;;;;;9.32;4.35;;;20.10;76.20;;;;;;6238821;23;20253;-77
2021/07/28 07:40:01;;;;;;;8.20;4.00;;;20.10;76.00;;;;;;6217742;23;20048;-76
2021/07/28 07:42:35;;;;;;;6.63;3.80;;;20.10;75.50;;;;;;6218280;23;20024;-76
2021/07/28 07:45:02;;;;;;;6.95;4.15;;;20.20;76.00;;;;;;6218312;23;20025;-76
2021/07/28 07:47:29;;;;;;;8.45;3.55;;;20.30;75.50;;;;;;6218445;23;20245;-76
2021/07/28 07:49:57;;;;;;;10.75;4.05;;;20.20;75.00;;;;;;6217778;23;20031;-76
2021/07/28 07:52:24;;;;;;;10.32;4.75;;;20.40;75.50;;;;;;6218159;23;20029;-76
2021/07/28 07:54:51;;;;;;;8.02;3.90;;;20.50;74.70;;;;;;6219708;23;20300;-77
2021/07/28 07:57:18;;;;;;;8.93;3.53;;;20.50;74.80;;;;;;6216172;23;20028;-77
2021/07/28 07:59:50;;;;;;;5.93;3.30;;;20.40;75.10;;;;;;6217797;23;20020;-76
2021/07/28 08:02:17;;;;;;;8.48;3.97;;;20.40;75.10;;;;;;6211562;23;20158;-74
2021/07/28 08:04:45;;;;;;;7.88;3.90;;;20.20;75.40;;;;;;6211638;23;20028;-74
2021/07/28 08:07:12;;;;;;;8.38;4.00;;;20.40;75.20;;;;;;6216411;23;20312;-74
2021/07/28 08:09:39;;;;;;;7.72;3.65;;;20.30;74.90;;;;;;6215812;23;20020;-75
2021/07/28 08:12:07;;;;;;;7.55;3.50;;;20.60;75.00;;;;;;6213215;23;20025;-76
2021/07/28 08:14:34;;;;;;;9.65;4.55;;;20.40;74.50;;;;;;6215321;23;20016;-74
2021/07/28 08:17:05;;;;;;;9.05;3.67;;;20.60;73.70;;;;;;6215824;23;20215;-75
2021/07/28 08:19:36;;;;;;;8.45;3.58;;;20.90;73.40;;;;;;6215328;23;20023;-75
2021/07/28 08:22:04;;;;;;;6.93;3.45;;;21.00;73.10;;;;;;6212711;23;20024;-75
2021/07/28 08:24:32;;;;;;;7.35;3.42;;;21.10;71.90;;;;;;6214752;23;20422;-75
2021/07/28 08:26:59;;;;;;;7.13;3.97;;;21.20;71.20;;;;;;6211566;23;20032;-75
2021/07/28 08:29:27;;;;;;;7.00;3.50;;;21.50;71.20;;;;;;6209263;23;20358;-76
2021/07/28 08:31:54;;;;;;;8.55;3.85;;;21.60;70.40;;;;;;6214155;23;20371;-76
2021/07/28 08:34:23;;;;;;;6.88;3.67;;;21.50;70.30;;;;;;6215129;23;20084;-75
2021/07/28 08:36:50;;;;;;;7.30;3.28;;;21.50;69.40;;;;;;6216393;23;20025;-76
2021/07/28 08:39:18;;;;;;;6.78;3.42;;;21.50;70.30;;;;;;6216452;23;20208;-75
2021/07/28 08:41:49;;;;;;;6.80;3.38;;;21.40;70.70;;;;;;6215700;23;20031;-75
2021/07/28 08:44:20;;;;;;;8.13;4.63;;;21.60;70.50;;;;;;6215906;23;20024;-74
2021/07/28 08:46:50;;;;;;;7.90;2.95;;;21.60;69.70;;;;;;6215855;23;20320;-75
2021/07/28 08:49:19;;;;;;;8.70;3.65;;;22.10;68.90;;;;;;6218371;23;20031;-75
2021/07/28 08:51:48;;;;;;;7.28;3.53;;;22.40;67.20;;;;;;6219298;23;20032;-75
2021/07/28 08:54:15;;;;;;;7.90;3.33;;;22.40;67.00;;;;;;6216842;23;20058;-75
2021/07/28 08:56:43;;;;;;;6.78;3.25;;;22.20;68.00;;;;;;6216530;23;20149;-75
2021/07/28 08:59:25;;;;;;;8.23;3.22;;;22.10;67.80;;;;;;6217790;23;20021;-75
2021/07/28 09:01:52;;;;;;;10.35;3.63;;;22.00;67.90;;;;;;6211573;23;20029;-75
2021/07/28 09:04:19;;;;;;;7.18;3.13;;;22.10;67.50;;;;;;6218493;23;20024;-75
2021/07/28 09:06:48;;;;;;;7.15;3.85;;;22.40;67.60;;;;;;6217778;23;20032;-75
2021/07/28 09:09:15;;;;;;;5.50;2.95;;;22.30;67.00;;;;;;6216244;23;20032;-75
2021/07/28 09:11:56;;;;;;;6.88;3.67;;;22.50;67.40;;;;;;6217864;23;20107;-74
2021/07/28 09:14:26;;;;;;;7.68;2.90;;;22.60;66.40;;;;;;6218019;23;20016;-75
2021/07/28 09:16:53;;;;;;;5.75;2.63;;;22.90;65.50;;;;;;6219754;23;20024;-75
2021/07/28 09:19:41;;;;;;;7.97;3.38;;;22.80;65.80;;;;;;6218210;23;20074;-75
2021/07/28 09:22:12;;;;;;;6.60;3.10;;;22.70;65.40;;;;;;6216840;23;20020;-75
2021/07/28 09:24:42;;;;;;;8.10;3.58;;;22.60;66.30;;;;;;6218789;23;20051;-75
2021/07/28 09:27:09;;;;;;;5.90;3.28;;;22.30;67.20;;;;;;6217181;23;20020;-75
2021/07/28 09:29:39;;;;;;;6.38;3.30;;;22.30;65.80;;;;;;6217487;23;20025;-76
2021/07/28 09:32:09;;;;;;;7.45;3.45;;;22.60;66.40;;;;;;6221281;23;20016;-75
2021/07/28 09:34:38;;;;;;;10.52;4.10;;;22.60;65.70;;;;;;6221446;23;20040;-75
2021/07/28 09:37:10;;;;;;;7.57;3.45;;;22.60;66.20;;;;;;6220820;23;20047;-75
2021/07/28 09:39:43;;;;;;;5.78;3.17;;;22.70;66.40;;;;;;6220126;23;20020;-77
2021/07/28 09:42:12;;;;;;;7.15;3.42;;;22.70;66.30;;;;;;6218260;23;20360;-76
2021/07/28 09:44:41;;;;;;;7.57;3.17;;;22.60;66.60;;;;;;6217713;23;20028;-76
2021/07/28 09:47:11;;;;;;;6.85;3.47;;;22.30;67.30;;;;;;6218727;23;20068;-76
2021/07/28 09:49:39;;;;;;;;;;;21.90;68.30;;;;;;6222085;23;20025;-76
2021/07/28 09:52:21;;;;;;;9.68;3.33;;;21.70;68.60;;;;;;6221683;23;19947;-76
2021/07/28 09:54:51;;;;;;;6.63;3.40;;;21.70;69.00;;;;;;6218311;23;20028;-75
2021/07/28 09:57:22;;;;;;;5.90;3.50;;;21.60;69.60;;;;;;6223703;23;20021;-76
2021/07/28 09:59:52;;;;;;;7.47;3.28;;;21.60;69.80;;;;;;6219376;23;20248;-75
2021/07/28 10:02:22;;;;;;;6.32;3.38;;;21.80;69.50;;;;;;6212409;23;20028;-76
2021/07/28 10:04:50;;;;;;;;;;;21.80;69.00;;;;;;6216971;23;20024;-76
2021/07/28 10:07:19;;;;;;;8.90;4.03;;;22.00;68.70;;;;;;6218575;23;20224;-76
2021/07/28 10:09:54;;;;;;;10.80;3.20;;;21.90;68.70;;;;;;6217504;23;20256;-76
2021/07/28 10:12:21;;;;;;;8.85;3.40;;;22.10;67.60;;;;;;6219721;23;20016;-76
2021/07/28 10:14:50;;;;;;;5.47;3.13;;;22.10;67.30;;;;;;6217029;23;20091;-76
2021/07/28 10:17:17;;;;;;;8.60;3.60;;;22.10;67.70;;;;;;6220223;23;20106;-77
2021/07/28 10:19:44;;;;;;;7.30;3.78;;;22.30;67.20;;;;;;6217044;23;20365;-76
2021/07/28 10:22:13;;;;;;;7.38;3.50;;;22.90;65.30;;;;;;6219412;23;20024;-76
2021/07/28 10:24:40;;;;;;;6.57;3.45;;;22.60;65.80;;;;;;6219184;23;20044;-76
2021/07/28 10:27:09;;;;;;;7.50;3.85;;;22.40;66.70;;;;;;6219116;23;20328;-76
2021/07/28 10:29:37;;;;;;;6.57;3.80;;;22.30;67.30;;;;;;6216865;23;20020;-76
2021/07/28 10:32:04;;;;;;;7.15;3.65;;;22.20;67.20;;;;;;6216469;23;20024;-75
2021/07/28 10:34:33;;;;;;;6.32;3.35;;;22.20;67.70;;;;;;6216543;23;20076;-76
2021/07/28 10:37:03;;;;;;;9.40;3.37;;;22.20;67.60;;;;;;6218643;23;20020;-75
2021/07/28 10:39:46;;;;;;;7.20;3.38;;;22.50;67.70;;;;;;6220100;23;20506;-76
2021/07/28 10:42:19;;;;;;;6.30;3.33;;;22.90;65.70;;;;;;6224513;23;20020;-76
2021/07/28 10:45:07;;;;;;;6.30;3.50;;;22.60;66.00;;;;;;6224009;23;20252;-76
2021/07/28 10:47:42;;;;;;;8.27;4.30;;;22.60;67.00;;;;;;6223868;23;20032;-75
2021/07/28 10:50:43;;;;;;;6.35;3.47;;;22.30;66.40;;;;;;6219326;23;20020;-76
2021/07/28 10:53:11;;;;;;;7.38;3.78;;;22.50;66.20;;;;;;6221401;23;20016;-75
2021/07/28 10:55:38;;;;;;;8.00;3.50;;;22.80;65.30;;;;;;6221544;23;20017;-76
2021/07/28 10:58:29;;;;;;;7.22;3.97;;;23.30;63.40;;;;;;6219160;23;20324;-76
2021/07/28 11:01:01;;;;;;;8.18;2.63;;;24.20;61.00;;;;;;6215770;23;20025;-75
2021/07/28 11:03:35;;;;;;;7.25;3.25;;;24.40;59.50;;;;;;6222056;23;20028;-76
2021/07/28 11:06:19;;;;;;;7.28;3.58;;;24.70;59.20;;;;;;6220491;23;20264;-76
2021/07/28 11:08:47;;;;;;;8.13;3.47;;;24.50;58.70;;;;;;6221735;23;20048;-75
2021/07/28 11:11:30;;;;;;;9.88;4.40;;;24.30;59.90;;;;;;6219818;23;20078;-76
2021/07/28 11:14:04;;;;;;;6.43;3.67;;;24.00;60.60;;;;;;6219996;23;20084;-75
2021/07/28 11:16:36;;;;;;;4.95;2.83;;;23.60;61.60;;;;;;6219081;23;20223;-76
2021/07/28 11:19:03;;;;;;;6.07;3.33;;;23.60;62.20;;;;;;6219807;23;20028;-75
2021/07/28 11:21:30;;;;;;;6.95;3.38;;;23.30;61.80;;;;;;6222620;23;20339;-75
2021/07/28 11:24:04;;;;;;;7.05;3.35;;;23.10;63.10;;;;;;6221658;23;20016;-75
2021/07/28 11:26:34;;;;;;;6.07;2.88;;;23.10;63.70;;;;;;6219347;23;20032;-75
2021/07/28 11:29:05;;;;;;;6.07;3.13;;;22.90;64.10;;;;;;6221177;23;20016;-75
2021/07/28 11:31:36;;;;;;;5.53;3.40;;;22.80;63.90;;;;;;6220974;23;20025;-75
2021/07/28 11:34:15;;;;;;;7.65;3.22;;;22.80;63.90;;;;;;6221719;23;20028;-75
2021/07/28 11:36:57;;;;;;;7.03;2.90;;;22.60;64.30;;;;;;6220669;23;20044;-75
2021/07/28 11:39:25;;;;;;;6.45;3.28;;;22.40;65.40;;;;;;6217536;23;20028;-75
2021/07/28 11:42:03;;;;;;;6.35;3.13;;;22.40;65.60;;;;;;6220715;23;20047;-76
2021/07/28 11:44:30;;;;;;;4.93;2.97;;;22.50;65.70;;;;;;6218539;23;20039;-76
2021/07/28 11:46:59;;;;;;;6.07;3.20;;;22.70;65.50;;;;;;6215881;23;20016;-75
2021/07/28 11:49:27;;;;;;;7.45;3.20;;;23.20;65.60;;;;;;6219929;23;20019;-75
2021/07/28 11:52:01;;;;;;;9.82;3.67;;;23.30;65.00;;;;;;6216086;23;20036;-76
2021/07/28 11:54:32;;;;;;;5.78;2.85;;;24.10;62.80;;;;;;6217378;23;20095;-75
2021/07/28 11:57:00;;;;;;;7.05;3.05;;;26.70;55.60;;;;;;6219337;23;20364;-75
2021/07/28 11:59:34;;;;;;;6.18;3.08;;;28.30;50.60;;;;;;6218319;23;20047;-75
2021/07/28 12:02:04;;;;;;;5.65;3.30;;;29.60;45.60;;;;;;6214278;23;20024;-76
2021/07/28 12:04:35;;;;;;;6.57;3.30;;;29.80;46.10;;;;;;6217117;23;20016;-75
2021/07/28 12:07:11;;;;;;;6.75;2.67;;;28.60;46.50;;;;;;6216556;23;20253;-75
2021/07/28 12:09:39;;;;;;;7.80;2.72;;;29.20;46.00;;;;;;6216232;23;20245;-75
2021/07/28 12:12:07;;;;;;;6.20;2.63;;;27.80;48.30;;;;;;6217209;23;20009;-75
2021/07/28 12:14:39;;;;;;;7.60;3.65;;;26.80;51.50;;;;;;6218745;23;20360;-75
2021/07/28 12:17:22;;;;;;;8.23;3.03;;;26.40;52.00;;;;;;6218216;23;20098;-75
2021/07/28 12:19:55;;;;;;;7.60;3.22;;;27.20;50.20;;;;;;6219227;23;20027;-75
2021/07/28 12:22:29;;;;;;;5.95;2.80;;;26.20;52.80;;;;;;6213653;23;20036;-75
2021/07/28 12:25:13;;;;;;;5.30;2.78;;;25.50;54.40;;;;;;6216819;23;20029;-75
2021/07/28 12:27:57;;;;;;;6.63;3.25;;;25.10;55.70;;;;;;6220619;23;20036;-77
2021/07/28 12:30:26;;;;;;;5.80;3.13;;;26.30;54.10;;;;;;6215888;23;20024;-77
2021/07/28 12:33:07;;;;;;;7.97;3.90;;;26.00;54.60;;;;;;6218466;23;20030;-75
2021/07/28 12:35:40;;;;;;;7.85;3.28;;;25.10;56.00;;;;;;6214765;23;20036;-74
2021/07/28 12:38:10;;;;;;;6.65;3.28;;;24.30;58.30;;;;;;6221078;23;20025;-74
2021/07/28 12:40:37;;;;;;;;;;;23.90;60.30;;;;;;6221829;23;20075;-74
2021/07/28 12:43:06;;;;;;;9.30;3.05;;;22.50;75.50;;;;;;6220985;23;19971;-74
2021/07/28 12:45:33;;;;;;;8.32;3.42;;;21.40;76.00;;;;;;6223041;23;20047;-71
2021/07/28 12:48:04;;;;;;;6.30;3.25;;;21.30;77.10;;;;;;6221310;23;20051;-72
2021/07/28 12:50:32;;;;;;;7.47;3.90;;;21.30;77.00;;;;;;6222256;23;20021;-72
2021/07/28 12:53:01;;;;;;;6.80;3.55;;;21.20;76.90;;;;;;6218603;23;20016;-72
2021/07/28 12:55:28;;;;;;;5.95;3.38;;;21.30;75.80;;;;;;6219562;23;20016;-72
2021/07/28 12:57:55;;;;;;;6.10;3.50;;;21.40;75.80;;;;;;6221058;23;20216;-72
2021/07/28 13:00:25;;;;;;;11.43;4.35;;;21.50;77.10;;;;;;6215488;23;20021;-72